sensor_id;sensor_type;location;lat;lon;timestamp;P1;durP1;ratioP1;P2;durP2;ratioP2
68993;SDS011;56054;50.968;5.816;2024-03-25T00:01:21;8.47;;;2.57;;
68993;SDS011;56054;50.968;5.816;2024-03-25T00:04:28;13.47;;;3.70;;
68993;SDS011;56054;50.968;5.816;2024-03-25T00:07:35;16.13;;;4.60;;
68993;SDS011;56054;50.968;5.816;2024-03-25T00:10:46;14.83;;;3.70;;
68993;SDS011;56054;50.968;5.816;2024-03-25T00:13:53;10.87;;;3.40;;
68993;SDS011;56054;50.968;5.816;2024-03-25T00:17:00;10.17;;;3.10;;
68993;SDS011;56054;50.968;5.816;2024-03-25T00:20:07;12.87;;;3.03;;
68993;SDS011;56054;50.968;5.816;2024-03-25T00:23:15;12.27;;;2.90;;
68993;SDS011;56054;50.968;5.816;2024-03-25T00:26:22;14.43;;;3.00;;
68993;SDS011;56054;50.968;5.816;2024-03-25T00:29:30;11.57;;;2.83;;
68993;SDS011;56054;50.968;5.816;2024-03-25T00:32:44;9.43;;;3.20;;
68993;SDS011;56054;50.968;5.816;2024-03-25T00:35:51;18.17;;;3.40;;
68993;SDS011;56054;50.968;5.816;2024-03-25T00:38:58;15.50;;;3.73;;
68993;SDS011;56054;50.968;5.816;2024-03-25T00:42:05;12.27;;;3.00;;
68993;SDS011;56054;50.968;5.816;2024-03-25T00:45:12;14.77;;;2.80;;
68993;SDS011;56054;50.968;5.816;2024-03-25T00:48:19;8.50;;;2.43;;
68993;SDS011;56054;50.968;5.816;2024-03-25T00:51:26;9.63;;;2.50;;
68993;SDS011;56054;50.968;5.816;2024-03-25T00:54:33;10.97;;;2.80;;
68993;SDS011;56054;50.968;5.816;2024-03-25T00:57:40;17.13;;;3.70;;
68993;SDS011;56054;50.968;5.816;2024-03-25T01:00:47;15.07;;;3.03;;
68993;SDS011;56054;50.968;5.816;2024-03-25T01:03:54;17.33;;;3.40;;
68993;SDS011;56054;50.968;5.816;2024-03-25T01:07:01;15.87;;;3.17;;
68993;SDS011;56054;50.968;5.816;2024-03-25T01:10:08;15.10;;;3.10;;
68993;SDS011;56054;50.968;5.816;2024-03-25T01:13:15;22.17;;;2.93;;
68993;SDS011;56054;50.968;5.816;2024-03-25T01:16:22;15.77;;;3.40;;
68993;SDS011;56054;50.968;5.816;2024-03-25T01:19:29;12.83;;;3.00;;
68993;SDS011;56054;50.968;5.816;2024-03-25T01:22:36;17.00;;;2.70;;
68993;SDS011;56054;50.968;5.816;2024-03-25T01:25:43;16.83;;;3.40;;
68993;SDS011;56054;50.968;5.816;2024-03-25T01:28:50;11.83;;;2.77;;
68993;SDS011;56054;50.968;5.816;2024-03-25T01:31:57;14.37;;;3.47;;
68993;SDS011;56054;50.968;5.816;2024-03-25T01:35:04;9.90;;;2.93;;
68993;SDS011;56054;50.968;5.816;2024-03-25T01:38:11;13.40;;;3.23;;
68993;SDS011;56054;50.968;5.816;2024-03-25T01:41:20;15.93;;;3.50;;
68993;SDS011;56054;50.968;5.816;2024-03-25T01:44:28;10.73;;;3.13;;
68993;SDS011;56054;50.968;5.816;2024-03-25T01:47:35;5.10;;;2.47;;
68993;SDS011;56054;50.968;5.816;2024-03-25T01:50:43;11.27;;;3.47;;
68993;SDS011;56054;50.968;5.816;2024-03-25T01:53:52;12.57;;;3.57;;
68993;SDS011;56054;50.968;5.816;2024-03-25T01:57:01;11.77;;;2.80;;
68993;SDS011;56054;50.968;5.816;2024-03-25T02:00:08;15.13;;;3.23;;
68993;SDS011;56054;50.968;5.816;2024-03-25T02:03:23;10.37;;;3.57;;
68993;SDS011;56054;50.968;5.816;2024-03-25T02:06:30;8.47;;;2.97;;
68993;SDS011;56054;50.968;5.816;2024-03-25T02:09:37;12.57;;;3.13;;
68993;SDS011;56054;50.968;5.816;2024-03-25T02:12:45;11.77;;;3.10;;
68993;SDS011;56054;50.968;5.816;2024-03-25T02:15:53;9.87;;;3.30;;
68993;SDS011;56054;50.968;5.816;2024-03-25T02:19:00;17.33;;;3.23;;
68993;SDS011;56054;50.968;5.816;2024-03-25T02:22:07;11.73;;;3.53;;
68993;SDS011;56054;50.968;5.816;2024-03-25T02:25:14;9.83;;;3.03;;
68993;SDS011;56054;50.968;5.816;2024-03-25T02:28:23;8.63;;;2.67;;
68993;SDS011;56054;50.968;5.816;2024-03-25T02:31:30;8.90;;;2.93;;
68993;SDS011;56054;50.968;5.816;2024-03-25T02:34:37;13.10;;;3.30;;
68993;SDS011;56054;50.968;5.816;2024-03-25T02:37:46;9.93;;;3.00;;
68993;SDS011;56054;50.968;5.816;2024-03-25T02:40:53;13.17;;;3.23;;
68993;SDS011;56054;50.968;5.816;2024-03-25T02:44:00;12.97;;;3.20;;
68993;SDS011;56054;50.968;5.816;2024-03-25T02:47:07;14.83;;;4.00;;
68993;SDS011;56054;50.968;5.816;2024-03-25T02:50:14;17.63;;;4.47;;
68993;SDS011;56054;50.968;5.816;2024-03-25T02:53:21;13.03;;;4.37;;
68993;SDS011;56054;50.968;5.816;2024-03-25T02:56:28;11.53;;;4.40;;
68993;SDS011;56054;50.968;5.816;2024-03-25T02:59:35;16.53;;;4.30;;
68993;SDS011;56054;50.968;5.816;2024-03-25T03:02:42;12.83;;;4.20;;
68993;SDS011;56054;50.968;5.816;2024-03-25T03:05:49;10.30;;;4.67;;
68993;SDS011;56054;50.968;5.816;2024-03-25T03:08:56;14.07;;;4.13;;
68993;SDS011;56054;50.968;5.816;2024-03-25T03:12:03;9.27;;;3.70;;
68993;SDS011;56054;50.968;5.816;2024-03-25T03:15:10;11.73;;;3.53;;
68993;SDS011;56054;50.968;5.816;2024-03-25T03:18:17;12.67;;;4.40;;
68993;SDS011;56054;50.968;5.816;2024-03-25T03:21:24;13.80;;;3.50;;
68993;SDS011;56054;50.968;5.816;2024-03-25T03:24:31;10.83;;;3.77;;
68993;SDS011;56054;50.968;5.816;2024-03-25T03:27:38;10.73;;;3.70;;
68993;SDS011;56054;50.968;5.816;2024-03-25T03:30:45;14.87;;;3.53;;
68993;SDS011;56054;50.968;5.816;2024-03-25T03:33:52;8.70;;;3.73;;
68993;SDS011;56054;50.968;5.816;2024-03-25T03:36:59;12.77;;;3.83;;
68993;SDS011;56054;50.968;5.816;2024-03-25T03:40:06;10.27;;;3.97;;
68993;SDS011;56054;50.968;5.816;2024-03-25T03:43:14;10.73;;;3.87;;
68993;SDS011;56054;50.968;5.816;2024-03-25T03:46:21;5.90;;;3.23;;
68993;SDS011;56054;50.968;5.816;2024-03-25T03:49:28;11.60;;;4.20;;
68993;SDS011;56054;50.968;5.816;2024-03-25T03:52:35;11.53;;;3.87;;
68993;SDS011;56054;50.968;5.816;2024-03-25T03:55:42;10.97;;;4.67;;
68993;SDS011;56054;50.968;5.816;2024-03-25T03:58:49;14.63;;;4.20;;
68993;SDS011;56054;50.968;5.816;2024-03-25T04:01:56;9.50;;;5.17;;
68993;SDS011;56054;50.968;5.816;2024-03-25T04:05:03;6.60;;;3.03;;
68993;SDS011;56054;50.968;5.816;2024-03-25T04:08:10;15.57;;;4.00;;
68993;SDS011;56054;50.968;5.816;2024-03-25T04:11:17;9.00;;;3.53;;
68993;SDS011;56054;50.968;5.816;2024-03-25T04:14:24;7.87;;;3.93;;
68993;SDS011;56054;50.968;5.816;2024-03-25T04:17:31;12.03;;;4.20;;
68993;SDS011;56054;50.968;5.816;2024-03-25T04:20:38;10.33;;;3.20;;
68993;SDS011;56054;50.968;5.816;2024-03-25T04:23:47;11.03;;;3.53;;
68993;SDS011;56054;50.968;5.816;2024-03-25T04:26:54;8.03;;;3.67;;
68993;SDS011;56054;50.968;5.816;2024-03-25T04:30:01;19.37;;;4.33;;
68993;SDS011;56054;50.968;5.816;2024-03-25T04:33:08;9.20;;;3.47;;
68993;SDS011;56054;50.968;5.816;2024-03-25T04:36:15;11.73;;;3.87;;
68993;SDS011;56054;50.968;5.816;2024-03-25T04:39:22;6.53;;;3.77;;
68993;SDS011;56054;50.968;5.816;2024-03-25T04:42:29;8.00;;;4.20;;
68993;SDS011;56054;50.968;5.816;2024-03-25T04:45:36;6.00;;;3.90;;
68993;SDS011;56054;50.968;5.816;2024-03-25T04:48:43;12.40;;;3.73;;
68993;SDS011;56054;50.968;5.816;2024-03-25T04:51:50;11.50;;;4.20;;
68993;SDS011;56054;50.968;5.816;2024-03-25T04:54:57;7.67;;;3.90;;
68993;SDS011;56054;50.968;5.816;2024-03-25T04:58:04;9.10;;;3.97;;
68993;SDS011;56054;50.968;5.816;2024-03-25T05:01:11;13.37;;;4.87;;
68993;SDS011;56054;50.968;5.816;2024-03-25T05:04:18;9.13;;;4.67;;
68993;SDS011;56054;50.968;5.816;2024-03-25T05:07:25;13.00;;;4.97;;
68993;SDS011;56054;50.968;5.816;2024-03-25T05:10:32;10.87;;;4.50;;
68993;SDS011;56054;50.968;5.816;2024-03-25T05:13:39;14.83;;;4.83;;
68993;SDS011;56054;50.968;5.816;2024-03-25T05:16:46;11.30;;;4.83;;
68993;SDS011;56054;50.968;5.816;2024-03-25T05:19:53;14.73;;;4.83;;
68993;SDS011;56054;50.968;5.816;2024-03-25T05:23:00;13.97;;;4.43;;
68993;SDS011;56054;50.968;5.816;2024-03-25T05:26:07;10.93;;;4.30;;
68993;SDS011;56054;50.968;5.816;2024-03-25T05:29:14;13.97;;;5.37;;
68993;SDS011;56054;50.968;5.816;2024-03-25T05:32:21;10.33;;;5.40;;
68993;SDS011;56054;50.968;5.816;2024-03-25T05:35:28;7.27;;;4.70;;
68993;SDS011;56054;50.968;5.816;2024-03-25T05:38:35;14.20;;;5.30;;
68993;SDS011;56054;50.968;5.816;2024-03-25T05:41:42;12.47;;;5.13;;
68993;SDS011;56054;50.968;5.816;2024-03-25T05:44:49;15.17;;;5.63;;
68993;SDS011;56054;50.968;5.816;2024-03-25T05:47:56;14.63;;;5.87;;
68993;SDS011;56054;50.968;5.816;2024-03-25T05:51:03;16.20;;;5.47;;
68993;SDS011;56054;50.968;5.816;2024-03-25T05:54:11;18.83;;;5.20;;
68993;SDS011;56054;50.968;5.816;2024-03-25T05:57:18;13.57;;;5.80;;
68993;SDS011;56054;50.968;5.816;2024-03-25T06:00:25;13.90;;;5.60;;
68993;SDS011;56054;50.968;5.816;2024-03-25T06:03:32;11.30;;;5.93;;
68993;SDS011;56054;50.968;5.816;2024-03-25T06:06:39;16.57;;;6.07;;
68993;SDS011;56054;50.968;5.816;2024-03-25T06:09:46;16.23;;;6.27;;
68993;SDS011;56054;50.968;5.816;2024-03-25T06:12:53;16.60;;;6.30;;
68993;SDS011;56054;50.968;5.816;2024-03-25T06:16:00;16.30;;;6.57;;
68993;SDS011;56054;50.968;5.816;2024-03-25T06:19:07;19.37;;;6.60;;
68993;SDS011;56054;50.968;5.816;2024-03-25T06:22:14;15.90;;;6.70;;
68993;SDS011;56054;50.968;5.816;2024-03-25T06:25:21;19.57;;;7.40;;
68993;SDS011;56054;50.968;5.816;2024-03-25T06:28:28;19.13;;;6.87;;
68993;SDS011;56054;50.968;5.816;2024-03-25T06:31:35;19.57;;;7.70;;
68993;SDS011;56054;50.968;5.816;2024-03-25T06:34:49;17.13;;;8.33;;
68993;SDS011;56054;50.968;5.816;2024-03-25T06:37:56;16.10;;;8.03;;
68993;SDS011;56054;50.968;5.816;2024-03-25T06:41:04;18.20;;;8.37;;
68993;SDS011;56054;50.968;5.816;2024-03-25T06:44:11;15.57;;;7.60;;
68993;SDS011;56054;50.968;5.816;2024-03-25T06:47:18;22.23;;;7.77;;
68993;SDS011;56054;50.968;5.816;2024-03-25T06:50:25;19.50;;;7.50;;
68993;SDS011;56054;50.968;5.816;2024-03-25T06:53:32;17.57;;;7.13;;
68993;SDS011;56054;50.968;5.816;2024-03-25T06:56:39;20.50;;;7.17;;
68993;SDS011;56054;50.968;5.816;2024-03-25T06:59:46;23.37;;;8.40;;
68993;SDS011;56054;50.968;5.816;2024-03-25T07:02:53;18.60;;;7.73;;
68993;SDS011;56054;50.968;5.816;2024-03-25T07:06:00;23.77;;;7.20;;
68993;SDS011;56054;50.968;5.816;2024-03-25T07:09:08;19.20;;;7.87;;
68993;SDS011;56054;50.968;5.816;2024-03-25T07:12:15;21.57;;;7.67;;
68993;SDS011;56054;50.968;5.816;2024-03-25T07:15:22;23.03;;;8.73;;
68993;SDS011;56054;50.968;5.816;2024-03-25T07:18:29;28.07;;;8.43;;
68993;SDS011;56054;50.968;5.816;2024-03-25T07:21:36;23.03;;;7.50;;
68993;SDS011;56054;50.968;5.816;2024-03-25T07:24:43;20.17;;;8.30;;
68993;SDS011;56054;50.968;5.816;2024-03-25T07:27:50;27.97;;;8.87;;
68993;SDS011;56054;50.968;5.816;2024-03-25T07:30:57;18.87;;;8.50;;
68993;SDS011;56054;50.968;5.816;2024-03-25T07:34:04;20.80;;;8.73;;
68993;SDS011;56054;50.968;5.816;2024-03-25T07:37:11;38.40;;;9.23;;
68993;SDS011;56054;50.968;5.816;2024-03-25T07:40:21;23.73;;;8.63;;
68993;SDS011;56054;50.968;5.816;2024-03-25T07:43:29;21.80;;;8.37;;
68993;SDS011;56054;50.968;5.816;2024-03-25T07:46:36;23.33;;;7.93;;
68993;SDS011;56054;50.968;5.816;2024-03-25T07:49:43;26.23;;;8.20;;
68993;SDS011;56054;50.968;5.816;2024-03-25T07:52:50;17.00;;;7.07;;
68993;SDS011;56054;50.968;5.816;2024-03-25T07:55:57;18.40;;;7.50;;
68993;SDS011;56054;50.968;5.816;2024-03-25T07:59:04;16.10;;;6.27;;
68993;SDS011;56054;50.968;5.816;2024-03-25T08:02:18;12.43;;;7.00;;
68993;SDS011;56054;50.968;5.816;2024-03-25T08:05:25;18.97;;;6.73;;
68993;SDS011;56054;50.968;5.816;2024-03-25T08:08:32;18.70;;;6.93;;
68993;SDS011;56054;50.968;5.816;2024-03-25T08:11:39;21.47;;;6.90;;
68993;SDS011;56054;50.968;5.816;2024-03-25T08:14:46;23.37;;;7.27;;
68993;SDS011;56054;50.968;5.816;2024-03-25T08:17:53;17.70;;;7.43;;
68993;SDS011;56054;50.968;5.816;2024-03-25T08:21:07;18.33;;;6.47;;
68993;SDS011;56054;50.968;5.816;2024-03-25T08:24:14;14.47;;;5.70;;
68993;SDS011;56054;50.968;5.816;2024-03-25T08:27:21;16.53;;;6.53;;
68993;SDS011;56054;50.968;5.816;2024-03-25T08:30:28;14.83;;;6.33;;
68993;SDS011;56054;50.968;5.816;2024-03-25T08:33:35;17.43;;;6.77;;
68993;SDS011;56054;50.968;5.816;2024-03-25T08:36:42;13.97;;;6.30;;
68993;SDS011;56054;50.968;5.816;2024-03-25T08:39:49;16.23;;;6.93;;
68993;SDS011;56054;50.968;5.816;2024-03-25T08:42:56;19.67;;;6.77;;
68993;SDS011;56054;50.968;5.816;2024-03-25T08:46:03;18.20;;;6.63;;
68993;SDS011;56054;50.968;5.816;2024-03-25T08:49:10;14.70;;;5.73;;
68993;SDS011;56054;50.968;5.816;2024-03-25T08:52:17;18.33;;;6.50;;
68993;SDS011;56054;50.968;5.816;2024-03-25T08:55:24;21.03;;;7.73;;
68993;SDS011;56054;50.968;5.816;2024-03-25T08:58:31;14.87;;;6.67;;
68993;SDS011;56054;50.968;5.816;2024-03-25T09:01:38;21.37;;;6.60;;
68993;SDS011;56054;50.968;5.816;2024-03-25T09:04:45;18.47;;;6.70;;
68993;SDS011;56054;50.968;5.816;2024-03-25T09:07:52;14.87;;;5.70;;
68993;SDS011;56054;50.968;5.816;2024-03-25T09:10:59;17.43;;;6.10;;
68993;SDS011;56054;50.968;5.816;2024-03-25T09:14:06;19.33;;;6.97;;
68993;SDS011;56054;50.968;5.816;2024-03-25T09:17:13;14.73;;;6.07;;
68993;SDS011;56054;50.968;5.816;2024-03-25T09:20:20;20.37;;;6.97;;
68993;SDS011;56054;50.968;5.816;2024-03-25T09:23:27;22.40;;;6.00;;
68993;SDS011;56054;50.968;5.816;2024-03-25T09:26:34;17.90;;;5.10;;
68993;SDS011;56054;50.968;5.816;2024-03-25T09:29:41;17.10;;;6.40;;
68993;SDS011;56054;50.968;5.816;2024-03-25T09:32:48;21.57;;;6.17;;
68993;SDS011;56054;50.968;5.816;2024-03-25T09:35:55;13.67;;;5.07;;
68993;SDS011;56054;50.968;5.816;2024-03-25T09:39:02;9.13;;;4.67;;
68993;SDS011;56054;50.968;5.816;2024-03-25T09:42:09;13.13;;;5.30;;
68993;SDS011;56054;50.968;5.816;2024-03-25T09:45:25;9.03;;;4.20;;
68993;SDS011;56054;50.968;5.816;2024-03-25T09:48:32;11.43;;;4.80;;
68993;SDS011;56054;50.968;5.816;2024-03-25T09:51:39;14.27;;;4.60;;
68993;SDS011;56054;50.968;5.816;2024-03-25T09:54:46;14.63;;;4.57;;
68993;SDS011;56054;50.968;5.816;2024-03-25T09:57:53;14.17;;;4.97;;
68993;SDS011;56054;50.968;5.816;2024-03-25T10:01:00;14.23;;;4.40;;
68993;SDS011;56054;50.968;5.816;2024-03-25T10:04:07;8.80;;;2.67;;
68993;SDS011;56054;50.968;5.816;2024-03-25T10:07:24;12.27;;;3.67;;
68993;SDS011;56054;50.968;5.816;2024-03-25T10:10:33;6.00;;;2.40;;
68993;SDS011;56054;50.968;5.816;2024-03-25T10:13:40;7.90;;;3.00;;
68993;SDS011;56054;50.968;5.816;2024-03-25T10:16:49;10.70;;;2.73;;
68993;SDS011;56054;50.968;5.816;2024-03-25T10:19:57;9.77;;;2.37;;
68993;SDS011;56054;50.968;5.816;2024-03-25T10:23:04;4.67;;;2.00;;
68993;SDS011;56054;50.968;5.816;2024-03-25T10:26:23;11.83;;;3.53;;
68993;SDS011;56054;50.968;5.816;2024-03-25T10:29:32;11.63;;;3.17;;
68993;SDS011;56054;50.968;5.816;2024-03-25T10:32:39;11.30;;;3.97;;
68993;SDS011;56054;50.968;5.816;2024-03-25T10:35:46;7.90;;;3.03;;
68993;SDS011;56054;50.968;5.816;2024-03-25T10:39:02;6.40;;;3.20;;
68993;SDS011;56054;50.968;5.816;2024-03-25T10:42:12;6.30;;;2.80;;
68993;SDS011;56054;50.968;5.816;2024-03-25T10:45:21;9.50;;;3.10;;
68993;SDS011;56054;50.968;5.816;2024-03-25T10:48:28;6.93;;;3.10;;
68993;SDS011;56054;50.968;5.816;2024-03-25T10:51:37;9.23;;;4.10;;
68993;SDS011;56054;50.968;5.816;2024-03-25T10:54:49;7.60;;;3.07;;
68993;SDS011;56054;50.968;5.816;2024-03-25T10:57:56;8.57;;;3.53;;
68993;SDS011;56054;50.968;5.816;2024-03-25T11:01:04;4.63;;;2.47;;
68993;SDS011;56054;50.968;5.816;2024-03-25T11:04:11;6.40;;;2.63;;
68993;SDS011;56054;50.968;5.816;2024-03-25T11:07:26;7.27;;;2.73;;
68993;SDS011;56054;50.968;5.816;2024-03-25T11:10:40;9.43;;;3.17;;
68993;SDS011;56054;50.968;5.816;2024-03-25T11:13:48;4.17;;;2.17;;
68993;SDS011;56054;50.968;5.816;2024-03-25T11:16:55;5.47;;;2.00;;
68993;SDS011;56054;50.968;5.816;2024-03-25T11:20:20;3.93;;;1.67;;
68993;SDS011;56054;50.968;5.816;2024-03-25T11:23:34;6.03;;;2.00;;
68993;SDS011;56054;50.968;5.816;2024-03-25T11:26:42;8.03;;;1.63;;
68993;SDS011;56054;50.968;5.816;2024-03-25T11:29:50;6.53;;;1.87;;
68993;SDS011;56054;50.968;5.816;2024-03-25T11:32:57;4.13;;;1.27;;
68993;SDS011;56054;50.968;5.816;2024-03-25T11:36:07;7.07;;;1.33;;
68993;SDS011;56054;50.968;5.816;2024-03-25T11:39:16;4.63;;;1.70;;
68993;SDS011;56054;50.968;5.816;2024-03-25T11:42:23;4.73;;;1.33;;
68993;SDS011;56054;50.968;5.816;2024-03-25T11:45:30;4.47;;;1.30;;
68993;SDS011;56054;50.968;5.816;2024-03-25T11:48:38;6.27;;;1.40;;
68993;SDS011;56054;50.968;5.816;2024-03-25T11:51:45;5.80;;;1.40;;
68993;SDS011;56054;50.968;5.816;2024-03-25T11:54:55;4.70;;;1.30;;
68993;SDS011;56054;50.968;5.816;2024-03-25T11:58:02;4.87;;;1.53;;
68993;SDS011;56054;50.968;5.816;2024-03-25T12:01:09;2.67;;;1.20;;
68993;SDS011;56054;50.968;5.816;2024-03-25T12:04:17;4.23;;;1.40;;
68993;SDS011;56054;50.968;5.816;2024-03-25T12:07:25;4.47;;;1.30;;
68993;SDS011;56054;50.968;5.816;2024-03-25T12:10:32;5.03;;;1.87;;
68993;SDS011;56054;50.968;5.816;2024-03-25T12:13:39;3.03;;;1.20;;
68993;SDS011;56054;50.968;5.816;2024-03-25T12:16:46;2.37;;;1.13;;
68993;SDS011;56054;50.968;5.816;2024-03-25T12:20:01;8.83;;;1.83;;
68993;SDS011;56054;50.968;5.816;2024-03-25T12:23:09;3.87;;;1.30;;
68993;SDS011;56054;50.968;5.816;2024-03-25T12:26:16;5.03;;;1.40;;
68993;SDS011;56054;50.968;5.816;2024-03-25T12:29:23;5.70;;;1.30;;
68993;SDS011;56054;50.968;5.816;2024-03-25T12:32:40;5.57;;;1.13;;
68993;SDS011;56054;50.968;5.816;2024-03-25T12:35:55;4.90;;;1.00;;
68993;SDS011;56054;50.968;5.816;2024-03-25T12:39:02;4.17;;;1.10;;
68993;SDS011;56054;50.968;5.816;2024-03-25T12:42:09;3.03;;;1.00;;
68993;SDS011;56054;50.968;5.816;2024-03-25T12:45:16;3.40;;;1.30;;
68993;SDS011;56054;50.968;5.816;2024-03-25T12:48:23;3.63;;;1.20;;
68993;SDS011;56054;50.968;5.816;2024-03-25T12:51:30;2.07;;;1.20;;
68993;SDS011;56054;50.968;5.816;2024-03-25T12:54:37;4.20;;;1.30;;
68993;SDS011;56054;50.968;5.816;2024-03-25T12:57:44;3.20;;;1.10;;
68993;SDS011;56054;50.968;5.816;2024-03-25T13:00:51;3.63;;;1.10;;
68993;SDS011;56054;50.968;5.816;2024-03-25T13:03:58;3.10;;;1.60;;
68993;SDS011;56054;50.968;5.816;2024-03-25T13:07:05;2.63;;;1.17;;
68993;SDS011;56054;50.968;5.816;2024-03-25T13:10:12;6.77;;;1.23;;
68993;SDS011;56054;50.968;5.816;2024-03-25T13:13:19;7.03;;;1.77;;
68993;SDS011;56054;50.968;5.816;2024-03-25T13:16:26;2.77;;;0.77;;
68993;SDS011;56054;50.968;5.816;2024-03-25T13:19:33;4.63;;;1.60;;
68993;SDS011;56054;50.968;5.816;2024-03-25T13:22:40;4.57;;;1.37;;
68993;SDS011;56054;50.968;5.816;2024-03-25T13:25:47;4.73;;;1.20;;
68993;SDS011;56054;50.968;5.816;2024-03-25T13:28:54;6.63;;;1.37;;
68993;SDS011;56054;50.968;5.816;2024-03-25T13:32:01;6.18;;;1.00;;
68993;SDS011;56054;50.968;5.816;2024-03-25T13:35:08;4.53;;;1.60;;
68993;SDS011;56054;50.968;5.816;2024-03-25T13:38:15;7.07;;;1.25;;
68993;SDS011;56054;50.968;5.816;2024-03-25T13:41:22;3.67;;;1.60;;
68993;SDS011;56054;50.968;5.816;2024-03-25T13:44:29;3.97;;;1.63;;
68993;SDS011;56054;50.968;5.816;2024-03-25T13:47:36;5.05;;;1.40;;
68993;SDS011;56054;50.968;5.816;2024-03-25T13:50:43;4.05;;;1.52;;
68993;SDS011;56054;50.968;5.816;2024-03-25T13:53:50;4.25;;;1.50;;
68993;SDS011;56054;50.968;5.816;2024-03-25T13:56:57;5.13;;;1.43;;
68993;SDS011;56054;50.968;5.816;2024-03-25T14:00:04;6.18;;;1.50;;
68993;SDS011;56054;50.968;5.816;2024-03-25T14:03:21;5.50;;;1.77;;
68993;SDS011;56054;50.968;5.816;2024-03-25T14:06:28;9.80;;;1.60;;
68993;SDS011;56054;50.968;5.816;2024-03-25T14:09:35;3.87;;;1.50;;
68993;SDS011;56054;50.968;5.816;2024-03-25T14:12:42;2.97;;;1.40;;
68993;SDS011;56054;50.968;5.816;2024-03-25T14:15:49;4.60;;;1.80;;
68993;SDS011;56054;50.968;5.816;2024-03-25T14:18:56;3.63;;;1.48;;
68993;SDS011;56054;50.968;5.816;2024-03-25T14:22:03;5.80;;;1.38;;
68993;SDS011;56054;50.968;5.816;2024-03-25T14:25:10;3.05;;;1.30;;
68993;SDS011;56054;50.968;5.816;2024-03-25T14:28:17;3.13;;;1.17;;
68993;SDS011;56054;50.968;5.816;2024-03-25T14:31:24;2.83;;;1.20;;
68993;SDS011;56054;50.968;5.816;2024-03-25T14:34:31;6.60;;;1.50;;
68993;SDS011;56054;50.968;5.816;2024-03-25T14:37:38;4.37;;;1.30;;
68993;SDS011;56054;50.968;5.816;2024-03-25T14:40:46;2.93;;;1.20;;
68993;SDS011;56054;50.968;5.816;2024-03-25T14:43:53;4.03;;;1.57;;
68993;SDS011;56054;50.968;5.816;2024-03-25T14:47:00;4.90;;;1.58;;
68993;SDS011;56054;50.968;5.816;2024-03-25T14:50:07;7.10;;;1.67;;
68993;SDS011;56054;50.968;5.816;2024-03-25T14:53:14;3.50;;;1.45;;
68993;SDS011;56054;50.968;5.816;2024-03-25T14:56:21;4.20;;;1.33;;
68993;SDS011;56054;50.968;5.816;2024-03-25T14:59:28;5.97;;;1.63;;
68993;SDS011;56054;50.968;5.816;2024-03-25T15:02:35;4.93;;;1.73;;
68993;SDS011;56054;50.968;5.816;2024-03-25T15:05:42;3.95;;;1.65;;
68993;SDS011;56054;50.968;5.816;2024-03-25T15:08:49;6.20;;;1.40;;
68993;SDS011;56054;50.968;5.816;2024-03-25T15:11:56;6.47;;;1.50;;
68993;SDS011;56054;50.968;5.816;2024-03-25T15:15:03;2.95;;;1.42;;
68993;SDS011;56054;50.968;5.816;2024-03-25T15:18:11;4.93;;;1.52;;
68993;SDS011;56054;50.968;5.816;2024-03-25T15:21:18;4.00;;;1.55;;
68993;SDS011;56054;50.968;5.816;2024-03-25T15:24:25;5.38;;;1.42;;
68993;SDS011;56054;50.968;5.816;2024-03-25T15:27:32;4.13;;;1.52;;
68993;SDS011;56054;50.968;5.816;2024-03-25T15:30:39;7.55;;;1.50;;
68993;SDS011;56054;50.968;5.816;2024-03-25T15:33:46;4.07;;;1.50;;
68993;SDS011;56054;50.968;5.816;2024-03-25T15:36:53;8.27;;;1.80;;
68993;SDS011;56054;50.968;5.816;2024-03-25T15:40:00;5.10;;;1.95;;
68993;SDS011;56054;50.968;5.816;2024-03-25T15:43:07;7.50;;;1.73;;
68993;SDS011;56054;50.968;5.816;2024-03-25T15:46:14;6.78;;;1.80;;
68993;SDS011;56054;50.968;5.816;2024-03-25T15:49:21;4.60;;;1.77;;
68993;SDS011;56054;50.968;5.816;2024-03-25T15:52:28;8.48;;;1.50;;
68993;SDS011;56054;50.968;5.816;2024-03-25T15:55:35;5.78;;;1.67;;
68993;SDS011;56054;50.968;5.816;2024-03-25T15:58:42;3.75;;;1.45;;
68993;SDS011;56054;50.968;5.816;2024-03-25T16:01:49;5.15;;;1.38;;
68993;SDS011;56054;50.968;5.816;2024-03-25T16:04:56;7.22;;;1.60;;
68993;SDS011;56054;50.968;5.816;2024-03-25T16:08:03;5.80;;;1.27;;
68993;SDS011;56054;50.968;5.816;2024-03-25T16:11:16;6.03;;;1.87;;
68993;SDS011;56054;50.968;5.816;2024-03-25T16:14:24;4.33;;;1.27;;
68993;SDS011;56054;50.968;5.816;2024-03-25T16:17:38;5.97;;;1.53;;
68993;SDS011;56054;50.968;5.816;2024-03-25T16:20:45;4.00;;;1.63;;
68993;SDS011;56054;50.968;5.816;2024-03-25T16:23:52;4.83;;;1.70;;
68993;SDS011;56054;50.968;5.816;2024-03-25T16:26:59;7.67;;;2.43;;
68993;SDS011;56054;50.968;5.816;2024-03-25T16:30:06;9.87;;;1.70;;
68993;SDS011;56054;50.968;5.816;2024-03-25T16:33:13;6.67;;;1.77;;
68993;SDS011;56054;50.968;5.816;2024-03-25T16:36:20;4.40;;;1.20;;
68993;SDS011;56054;50.968;5.816;2024-03-25T16:39:27;5.13;;;1.77;;
68993;SDS011;56054;50.968;5.816;2024-03-25T16:42:34;4.67;;;1.53;;
68993;SDS011;56054;50.968;5.816;2024-03-25T16:45:41;8.27;;;2.37;;
68993;SDS011;56054;50.968;5.816;2024-03-25T16:48:48;5.03;;;1.80;;
68993;SDS011;56054;50.968;5.816;2024-03-25T16:51:55;4.73;;;1.30;;
68993;SDS011;56054;50.968;5.816;2024-03-25T16:55:02;7.30;;;1.33;;
68993;SDS011;56054;50.968;5.816;2024-03-25T16:58:09;3.90;;;1.33;;
68993;SDS011;56054;50.968;5.816;2024-03-25T17:01:16;5.70;;;1.33;;
68993;SDS011;56054;50.968;5.816;2024-03-25T17:04:23;8.03;;;1.17;;
68993;SDS011;56054;50.968;5.816;2024-03-25T17:07:30;5.30;;;1.23;;
68993;SDS011;56054;50.968;5.816;2024-03-25T17:10:38;3.87;;;1.40;;
68993;SDS011;56054;50.968;5.816;2024-03-25T17:13:45;5.47;;;1.50;;
68993;SDS011;56054;50.968;5.816;2024-03-25T17:16:52;5.07;;;1.40;;
68993;SDS011;56054;50.968;5.816;2024-03-25T17:19:59;3.17;;;1.20;;
68993;SDS011;56054;50.968;5.816;2024-03-25T17:23:06;2.57;;;1.30;;
68993;SDS011;56054;50.968;5.816;2024-03-25T17:26:13;4.03;;;1.37;;
68993;SDS011;56054;50.968;5.816;2024-03-25T17:29:27;5.00;;;1.13;;
68993;SDS011;56054;50.968;5.816;2024-03-25T17:32:35;5.80;;;1.30;;
68993;SDS011;56054;50.968;5.816;2024-03-25T17:35:42;3.13;;;1.13;;
68993;SDS011;56054;50.968;5.816;2024-03-25T17:38:49;5.30;;;1.20;;
68993;SDS011;56054;50.968;5.816;2024-03-25T17:41:56;5.00;;;1.30;;
68993;SDS011;56054;50.968;5.816;2024-03-25T17:45:03;5.87;;;1.30;;
68993;SDS011;56054;50.968;5.816;2024-03-25T17:48:10;6.80;;;1.80;;
68993;SDS011;56054;50.968;5.816;2024-03-25T17:51:17;7.53;;;1.20;;
68993;SDS011;56054;50.968;5.816;2024-03-25T17:54:24;2.87;;;1.17;;
68993;SDS011;56054;50.968;5.816;2024-03-25T17:57:31;1.70;;;1.13;;
68993;SDS011;56054;50.968;5.816;2024-03-25T18:00:38;2.90;;;1.27;;
68993;SDS011;56054;50.968;5.816;2024-03-25T18:03:45;7.20;;;1.33;;
68993;SDS011;56054;50.968;5.816;2024-03-25T18:06:52;8.20;;;1.50;;
68993;SDS011;56054;50.968;5.816;2024-03-25T18:09:59;3.10;;;1.10;;
68993;SDS011;56054;50.968;5.816;2024-03-25T18:13:06;4.10;;;1.20;;
68993;SDS011;56054;50.968;5.816;2024-03-25T18:16:13;6.17;;;1.27;;
68993;SDS011;56054;50.968;5.816;2024-03-25T18:19:21;6.50;;;1.30;;
68993;SDS011;56054;50.968;5.816;2024-03-25T18:22:28;1.80;;;1.00;;
68993;SDS011;56054;50.968;5.816;2024-03-25T18:25:35;5.93;;;1.50;;
68993;SDS011;56054;50.968;5.816;2024-03-25T18:28:49;5.57;;;2.07;;
68993;SDS011;56054;50.968;5.816;2024-03-25T18:31:56;9.53;;;1.30;;
68993;SDS011;56054;50.968;5.816;2024-03-25T18:35:03;6.30;;;1.73;;
68993;SDS011;56054;50.968;5.816;2024-03-25T18:38:10;5.63;;;1.30;;
68993;SDS011;56054;50.968;5.816;2024-03-25T18:41:17;4.80;;;1.43;;